createdAt,value
2022-10-24T00:00:01.483Z,69.26
2022-10-24T00:02:38.351Z,70.37
2022-10-24T00:05:11.856Z,69.61
2022-10-24T00:07:42.462Z,69.45
2022-10-24T00:10:19.958Z,69.73
2022-10-24T00:12:47.688Z,68.95
2022-10-24T00:15:17.539Z,68.84
2022-10-24T00:17:45.114Z,68.80
2022-10-24T00:20:13.969Z,69.35
2022-10-24T00:22:41.764Z,69.54
2022-10-24T00:25:16.319Z,72.09
2022-10-24T00:27:44.352Z,72.60
2022-10-24T00:30:12.761Z,72.87
2022-10-24T00:32:42.185Z,71.63
2022-10-24T00:35:13.186Z,73.00
2022-10-24T00:37:40.729Z,73.76
2022-10-24T00:40:11.399Z,73.38
2022-10-24T00:42:39.674Z,74.66
2022-10-24T00:45:22.202Z,73.72
2022-10-24T00:47:54.952Z,74.03
2022-10-24T00:50:22.624Z,74.26
2022-10-24T00:52:53.758Z,73.29
2022-10-24T00:55:22.822Z,71.94
2022-10-24T00:58:02.843Z,72.47
2022-10-24T01:00:31.635Z,71.56
2022-10-24T01:03:02.640Z,71.71
2022-10-24T01:05:31.685Z,71.64
2022-10-24T01:08:01.034Z,72.64
2022-10-24T01:10:33.144Z,72.65
2022-10-24T01:13:03.908Z,73.40
2022-10-24T01:15:34.442Z,74.28
2022-10-24T01:18:10.298Z,72.47
2022-10-24T01:20:46.879Z,73.14
2022-10-24T01:23:32.929Z,72.65
2022-10-24T01:26:04.515Z,73.56
2022-10-24T01:28:33.264Z,73.56
2022-10-24T01:31:03.553Z,72.03
2022-10-24T01:33:31.830Z,72.77
2022-10-24T01:35:59.788Z,74.94
2022-10-24T01:38:27.860Z,74.62
2022-10-24T01:40:57.309Z,74.73
2022-10-24T01:43:29.086Z,73.69
2022-10-24T01:46:00.136Z,74.52
2022-10-24T01:48:44.357Z,73.97
2022-10-24T01:51:12.360Z,73.16
2022-10-24T01:53:45.549Z,71.69
2022-10-24T01:56:13.352Z,72.51
2022-10-24T01:58:43.225Z,72.75
2022-10-24T02:01:12.942Z,72.75
2022-10-24T02:03:45.546Z,72.82
2022-10-24T02:06:17.958Z,74.13
2022-10-24T02:08:46.249Z,74.83
2022-10-24T02:11:13.880Z,75.10
2022-10-24T02:13:45.136Z,74.66
2022-10-24T02:16:12.823Z,74.79
2022-10-24T02:18:42.734Z,74.36
2022-10-24T02:21:15.662Z,75.26
2022-10-24T02:23:44.545Z,75.38
2022-10-24T02:26:13.677Z,75.36
2022-10-24T02:28:44.702Z,75.37
2022-10-24T02:31:16.252Z,75.11
2022-10-24T02:33:44.163Z,74.95
2022-10-24T02:36:14.078Z,74.88
2022-10-24T02:38:44.178Z,74.37
2022-10-24T02:41:13.558Z,74.53
2022-10-24T02:43:41.455Z,75.94
2022-10-24T02:46:09.407Z,75.35
2022-10-24T02:48:37.945Z,75.98
2022-10-24T02:51:08.622Z,74.60
2022-10-24T02:53:39.587Z,75.66
2022-10-24T02:56:11.528Z,76.46
2022-10-24T02:58:39.219Z,75.54
2022-10-24T03:01:07.048Z,75.22
2022-10-24T03:03:34.751Z,76.19
2022-10-24T03:06:04.034Z,75.77
2022-10-24T03:08:38.887Z,76.28
2022-10-24T03:11:09.472Z,74.84
2022-10-24T03:13:37.081Z,77.19
2022-10-24T03:16:11.797Z,76.55
2022-10-24T03:18:44.533Z,77.04
2022-10-24T03:21:12.369Z,77.64
2022-10-24T03:23:43.445Z,77.56
2022-10-24T03:26:15.700Z,76.77
2022-10-24T03:28:43.277Z,77.12
2022-10-24T03:31:13.148Z,77.67
2022-10-24T03:33:45.674Z,78.05
2022-10-24T03:36:13.679Z,78.58
2022-10-24T03:38:41.323Z,77.79
2022-10-24T03:41:13.665Z,78.21
2022-10-24T03:43:42.723Z,77.40
2022-10-24T03:46:11.716Z,79.21
2022-10-24T03:48:39.474Z,77.90
2022-10-24T03:51:10.220Z,77.64
2022-10-24T03:53:38.042Z,78.73
2022-10-24T03:56:06.086Z,78.22
2022-10-24T03:58:38.473Z,78.51
2022-10-24T04:01:10.154Z,79.68
2022-10-24T04:03:43.204Z,79.93
2022-10-24T04:06:13.153Z,80.29
2022-10-24T04:08:43.140Z,81.93
2022-10-24T04:11:11.099Z,80.83
2022-10-24T04:13:38.973Z,80.32
2022-10-24T04:16:08.643Z,79.38
2022-10-24T04:18:36.406Z,80.64
2022-10-24T04:21:04.533Z,80.80
2022-10-24T04:23:44.341Z,80.92
2022-10-24T04:26:13.145Z,81.54
2022-10-24T04:28:40.930Z,80.04
2022-10-24T04:31:13.167Z,79.56
2022-10-24T04:33:44.687Z,80.33
2022-10-24T04:36:13.611Z,80.88
2022-10-24T04:38:43.556Z,81.75
2022-10-24T04:41:12.278Z,81.00
2022-10-24T04:43:49.688Z,80.02
2022-10-24T04:46:25.729Z,81.90
2022-10-24T04:48:53.751Z,82.23
2022-10-24T04:51:22.668Z,82.17
2022-10-24T04:53:50.469Z,82.81
2022-10-24T04:56:18.643Z,82.39
2022-10-24T04:58:49.404Z,81.76
2022-10-24T05:01:19.128Z,81.45
2022-10-24T05:03:47.250Z,80.55
2022-10-24T05:06:15.437Z,82.28
2022-10-24T05:08:43.492Z,82.73
2022-10-24T05:11:11.806Z,82.61
2022-10-24T05:13:39.410Z,82.45
2022-10-24T05:16:08.655Z,83.09
2022-10-24T05:18:39.356Z,82.79
2022-10-24T05:21:07.576Z,83.08
2022-10-24T05:23:35.541Z,82.20
2022-10-24T05:26:10.341Z,82.41
2022-10-24T05:28:41.397Z,84.40
2022-10-24T05:31:13.269Z,86.55
2022-10-24T05:33:42.735Z,87.57
2022-10-24T05:36:13.039Z,87.63
2022-10-24T05:38:40.615Z,88.09
2022-10-24T05:41:11.533Z,86.67
2022-10-24T05:43:41.133Z,86.55
2022-10-24T05:46:10.539Z,86.45
2022-10-24T05:48:41.138Z,86.05
2022-10-24T05:51:10.422Z,86.72
2022-10-24T05:53:37.970Z,86.43
2022-10-24T05:56:07.546Z,87.15
2022-10-24T05:58:36.443Z,87.09
2022-10-24T06:01:06.803Z,85.75
2022-10-24T06:03:34.848Z,86.84
2022-10-24T06:06:09.537Z,86.50
2022-10-24T06:08:39.092Z,85.28
2022-10-24T06:11:09.258Z,85.11
2022-10-24T06:13:40.088Z,85.92
2022-10-24T06:16:10.093Z,85.20
2022-10-24T06:18:38.262Z,85.63
2022-10-24T06:21:09.251Z,86.41
2022-10-24T06:23:38.316Z,84.69
2022-10-24T06:26:11.015Z,83.97
2022-10-24T06:28:39.333Z,85.40
2022-10-24T06:31:08.459Z,85.49
2022-10-24T06:33:36.445Z,85.98
2022-10-24T06:36:05.633Z,87.04
2022-10-24T06:38:33.760Z,86.91
2022-10-24T06:41:06.312Z,87.59
2022-10-24T06:43:33.910Z,88.61
2022-10-24T06:46:07.180Z,87.86
2022-10-24T06:48:39.198Z,87.36
2022-10-24T06:51:07.083Z,86.49
2022-10-24T06:53:37.990Z,88.50
2022-10-24T06:56:07.944Z,90.48
2022-10-24T06:58:36.275Z,90.72
2022-10-24T07:01:08.311Z,89.38
2022-10-24T07:03:38.085Z,88.61
2022-10-24T07:06:12.044Z,88.73
2022-10-24T07:08:42.717Z,89.50
2022-10-24T07:11:13.065Z,89.71
2022-10-24T07:13:41.421Z,89.80
2022-10-24T07:16:09.473Z,89.71
2022-10-24T07:18:37.510Z,90.64
2022-10-24T07:21:05.969Z,87.41
2022-10-24T07:23:38.137Z,86.45
2022-10-24T07:26:16.599Z,87.35
2022-10-24T07:28:56.580Z,88.70
2022-10-24T07:31:25.370Z,88.25
2022-10-24T07:33:54.065Z,87.27
2022-10-24T07:36:22.917Z,85.95
2022-10-24T07:38:53.470Z,86.17
2022-10-24T07:41:25.272Z,88.42
2022-10-24T07:44:02.273Z,86.48
2022-10-24T07:46:30.339Z,86.60
2022-10-24T07:48:58.634Z,90.04
2022-10-24T07:51:30.512Z,91.11
2022-10-24T07:53:58.379Z,90.75
2022-10-24T07:56:26.818Z,92.08
2022-10-24T07:58:58.728Z,90.54
2022-10-24T08:01:27.370Z,91.80
2022-10-24T08:03:55.109Z,90.96
2022-10-24T08:06:23.928Z,89.51
2022-10-24T08:08:55.318Z,90.47
2022-10-24T08:11:26.823Z,90.41
2022-10-24T08:13:55.036Z,90.06
2022-10-24T08:16:24.276Z,89.44
2022-10-24T08:18:55.120Z,90.19
2022-10-24T08:21:23.320Z,88.08
2022-10-24T08:23:52.189Z,90.24
2022-10-24T08:26:22.896Z,91.23
2022-10-24T08:28:51.655Z,91.29
2022-10-24T08:31:20.557Z,91.87
2022-10-24T08:33:50.250Z,92.24
2022-10-24T08:36:19.208Z,91.39
2022-10-24T08:38:49.914Z,92.10
2022-10-24T08:41:19.656Z,90.77
2022-10-24T08:43:47.995Z,90.83
2022-10-24T08:46:22.799Z,91.22
2022-10-24T08:48:52.837Z,90.35
2022-10-24T08:51:30.884Z,90.53
2022-10-24T08:53:59.087Z,92.46
2022-10-24T08:56:27.425Z,90.88
2022-10-24T08:58:55.068Z,91.07
2022-10-24T09:01:25.497Z,89.79
2022-10-24T09:03:59.286Z,88.87
2022-10-24T09:06:28.815Z,89.28
2022-10-24T09:08:58.252Z,89.19
2022-10-24T09:11:27.856Z,90.20
2022-10-24T09:13:55.461Z,89.90
2022-10-24T09:16:25.545Z,89.89
2022-10-24T09:18:56.282Z,91.10
2022-10-24T09:21:24.236Z,90.23
2022-10-24T09:23:52.485Z,89.66
2022-10-24T09:26:25.539Z,88.54
2022-10-24T09:28:58.184Z,86.69
2022-10-24T09:31:26.713Z,87.93
2022-10-24T09:34:00.555Z,88.17
2022-10-24T09:36:33.564Z,88.11
2022-10-24T09:39:17.013Z,86.09
2022-10-24T09:41:46.878Z,86.54
2022-10-24T09:44:32.785Z,85.45
2022-10-24T09:47:06.740Z,87.63
2022-10-24T09:49:41.250Z,86.53
2022-10-24T09:52:15.169Z,87.47
2022-10-24T09:54:43.967Z,88.77
2022-10-24T09:59:44.241Z,87.75
2022-10-24T10:02:20.231Z,88.25
2022-10-24T10:05:04.720Z,87.77
2022-10-24T10:07:37.056Z,89.24
2022-10-24T10:10:07.607Z,88.91
2022-10-24T10:12:37.603Z,88.60
2022-10-24T10:15:06.495Z,88.07
2022-10-24T10:17:35.877Z,89.35
2022-10-24T10:20:06.623Z,88.35
2022-10-24T10:22:35.057Z,89.17
2022-10-24T10:25:03.383Z,89.25
2022-10-24T10:27:35.344Z,89.51
2022-10-24T10:30:12.323Z,89.58
2022-10-24T10:32:41.582Z,89.25
2022-10-24T10:35:14.454Z,89.26
2022-10-24T10:37:47.808Z,89.51
2022-10-24T10:40:17.987Z,89.10
2022-10-24T10:42:48.740Z,89.90
2022-10-24T10:45:19.615Z,90.08
2022-10-24T10:47:53.754Z,90.03
2022-10-24T10:50:26.916Z,89.92
2022-10-24T10:53:01.764Z,89.80
2022-10-24T10:55:33.983Z,89.18
2022-10-24T10:58:06.202Z,89.96
2022-10-24T11:00:41.807Z,88.88
2022-10-24T11:03:12.200Z,88.23
2022-10-24T11:05:51.625Z,88.74
2022-10-24T11:08:24.162Z,88.31
2022-10-24T11:10:53.087Z,87.61
2022-10-24T11:13:23.269Z,88.21
2022-10-24T11:15:52.075Z,88.78
2022-10-24T11:18:22.411Z,88.03
2022-10-24T11:20:53.387Z,87.43
2022-10-24T11:23:22.769Z,88.43
2022-10-24T11:25:59.372Z,89.21
2022-10-24T11:28:45.674Z,87.94
2022-10-24T11:31:15.285Z,88.39
2022-10-24T11:33:45.934Z,87.84
2022-10-24T11:36:18.315Z,87.38
2022-10-24T11:38:48.265Z,87.78
2022-10-24T11:41:36.760Z,87.47
2022-10-24T11:44:06.389Z,87.41
2022-10-24T11:46:35.073Z,86.66
2022-10-24T11:49:05.867Z,87.19
2022-10-24T11:51:39.355Z,87.31
2022-10-24T11:54:10.318Z,87.51
2022-10-24T11:56:40.340Z,87.51
2022-10-24T11:59:08.892Z,87.25
2022-10-24T12:01:49.172Z,86.99
2022-10-24T12:04:33.370Z,85.89
2022-10-24T12:07:22.080Z,86.29
2022-10-24T12:09:53.284Z,85.94
2022-10-24T12:12:27.886Z,84.58
2022-10-24T12:15:11.691Z,84.16
2022-10-24T12:17:47.017Z,83.54
2022-10-24T12:20:15.741Z,84.42
2022-10-24T12:22:48.306Z,85.06
2022-10-24T12:25:20.453Z,84.79
2022-10-24T12:27:53.574Z,83.78
2022-10-24T12:30:24.190Z,84.23
2022-10-24T12:32:53.930Z,84.32
2022-10-24T12:35:57.111Z,82.53
2022-10-24T12:38:54.988Z,83.41
2022-10-24T12:41:41.998Z,82.92
2022-10-24T12:44:33.559Z,83.59
2022-10-24T12:47:03.749Z,83.16
2022-10-24T12:49:34.662Z,81.23
2022-10-24T12:52:03.145Z,82.13
2022-10-24T12:54:39.917Z,81.30
2022-10-24T12:57:27.594Z,80.15
2022-10-24T12:59:56.947Z,82.07
2022-10-24T13:02:41.034Z,81.92
2022-10-24T13:05:18.607Z,82.05
2022-10-24T13:07:50.597Z,82.42
2022-10-24T13:10:22.426Z,79.67
2022-10-24T13:13:01.048Z,79.46
2022-10-24T13:15:30.791Z,80.70
2022-10-24T13:18:05.972Z,80.77
2022-10-24T13:20:36.333Z,80.69
2022-10-24T13:23:04.690Z,79.75
2022-10-24T13:25:35.733Z,79.36
2022-10-24T13:28:22.512Z,80.09
2022-10-24T13:30:50.934Z,79.26
2022-10-24T13:33:42.712Z,79.87
2022-10-24T13:36:16.636Z,79.07
2022-10-24T13:38:46.718Z,79.00
2022-10-24T13:41:15.205Z,79.48
2022-10-24T13:43:45.778Z,78.86
2022-10-24T13:46:13.524Z,77.94
2022-10-24T13:48:46.838Z,78.42
2022-10-24T13:51:15.226Z,80.63
2022-10-24T13:53:43.371Z,78.07
2022-10-24T13:56:14.102Z,78.61
2022-10-24T13:58:45.555Z,79.20
2022-10-24T14:01:15.976Z,78.59
2022-10-24T14:03:47.578Z,79.85
2022-10-24T14:06:17.397Z,78.34
2022-10-24T14:08:52.454Z,79.54
2022-10-24T14:11:27.602Z,77.29
2022-10-24T14:14:02.512Z,78.60
2022-10-24T14:16:33.884Z,76.96
2022-10-24T14:19:16.625Z,76.83
2022-10-24T14:21:48.638Z,78.19
2022-10-24T14:24:16.967Z,78.77
2022-10-24T14:26:45.660Z,78.10
2022-10-24T14:29:22.513Z,77.86
2022-10-24T14:31:55.208Z,74.62
2022-10-24T14:34:26.159Z,75.12
2022-10-24T14:36:56.915Z,75.50
2022-10-24T14:39:24.818Z,74.90
2022-10-24T14:41:53.836Z,75.58
2022-10-24T14:44:22.353Z,72.97
2022-10-24T14:47:02.988Z,75.32
2022-10-24T14:49:33.807Z,75.44
2022-10-24T14:52:02.206Z,73.97
2022-10-24T14:54:33.278Z,73.62
2022-10-24T14:57:02.214Z,74.48
2022-10-24T14:59:35.132Z,72.42
2022-10-24T15:02:04.159Z,74.33
2022-10-24T15:04:42.250Z,73.85
2022-10-24T15:07:28.614Z,74.06
2022-10-24T15:09:57.093Z,72.68
2022-10-24T15:12:26.669Z,75.53
2022-10-24T15:14:54.572Z,75.23
2022-10-24T15:17:32.386Z,75.30
2022-10-24T15:20:06.719Z,75.31
2022-10-24T15:22:41.303Z,74.29
2022-10-24T15:25:19.146Z,72.61
2022-10-24T15:27:47.557Z,73.17
2022-10-24T15:30:18.785Z,75.31
2022-10-24T15:32:46.659Z,77.47
2022-10-24T15:35:18.561Z,77.65
2022-10-24T15:37:53.950Z,77.65
2022-10-24T15:40:23.659Z,77.78
2022-10-24T15:42:51.310Z,77.78
2022-10-24T15:45:20.303Z,77.52
2022-10-24T15:47:48.259Z,78.14
2022-10-24T15:50:19.393Z,78.57
2022-10-24T15:52:47.992Z,79.08
2022-10-24T15:55:17.799Z,79.47
2022-10-24T15:57:46.693Z,80.50
2022-10-24T16:00:15.297Z,80.19
2022-10-24T16:02:45.074Z,79.84
2022-10-24T16:05:17.047Z,80.10
2022-10-24T16:07:48.458Z,80.07
2022-10-24T16:10:22.895Z,81.21
2022-10-24T16:12:50.610Z,82.81
2022-10-24T16:15:19.743Z,83.65
2022-10-24T16:17:50.351Z,85.48
2022-10-24T16:20:19.800Z,86.03
2022-10-24T16:22:49.790Z,86.42
2022-10-24T16:25:19.421Z,85.67
2022-10-24T16:27:48.604Z,85.03
2022-10-24T16:30:17.097Z,88.09
2022-10-24T16:32:45.136Z,87.70
2022-10-24T16:35:12.950Z,86.30
2022-10-24T16:37:40.566Z,84.66
2022-10-24T16:40:12.267Z,84.39
2022-10-24T16:42:42.302Z,85.19
2022-10-24T16:45:10.356Z,83.00
2022-10-24T16:47:37.978Z,81.07
2022-10-24T16:50:06.038Z,82.22
2022-10-24T16:52:35.579Z,80.10
2022-10-24T16:55:05.479Z,81.29
2022-10-24T16:57:34.505Z,79.71
2022-10-24T17:00:14.340Z,80.47
2022-10-24T17:02:52.753Z,79.26
2022-10-24T17:05:24.576Z,77.22
2022-10-24T17:07:52.266Z,77.07
2022-10-24T17:10:22.264Z,79.48
2022-10-24T17:12:56.458Z,79.87
2022-10-24T17:15:25.587Z,80.79
2022-10-24T17:17:53.186Z,79.61
2022-10-24T17:20:20.782Z,80.92
2022-10-24T17:22:50.805Z,82.71
2022-10-24T17:25:22.431Z,83.22
2022-10-24T17:27:55.135Z,81.44
2022-10-24T17:30:23.433Z,79.37
2022-10-24T17:32:53.494Z,78.55
2022-10-24T17:35:22.982Z,79.71
2022-10-24T17:37:58.814Z,79.46
2022-10-24T17:40:27.110Z,78.22
2022-10-24T17:42:58.564Z,80.29
2022-10-24T17:45:26.437Z,80.03
2022-10-24T17:47:55.556Z,79.56
2022-10-24T17:50:25.800Z,79.89
2022-10-24T17:52:58.079Z,79.58
2022-10-24T17:55:45.146Z,80.87
2022-10-24T17:58:16.138Z,87.90
2022-10-24T18:00:46.765Z,88.16
2022-10-24T18:03:14.982Z,86.47
2022-10-24T18:05:43.175Z,87.13
2022-10-24T18:08:11.902Z,84.52
2022-10-24T18:10:39.813Z,85.17
2022-10-24T18:13:10.937Z,87.03
2022-10-24T18:15:50.052Z,87.41
2022-10-24T18:18:18.080Z,86.26
2022-10-24T18:20:45.866Z,85.57
2022-10-24T18:23:14.159Z,86.47
2022-10-24T18:25:41.802Z,87.61
2022-10-24T18:28:13.026Z,87.61
2022-10-24T18:30:46.233Z,87.91
2022-10-24T18:33:18.794Z,86.87
2022-10-24T18:35:49.944Z,86.56
2022-10-24T18:38:19.380Z,88.30
2022-10-24T18:40:47.402Z,87.58
2022-10-24T18:43:16.216Z,88.00
2022-10-24T18:45:46.748Z,88.03
2022-10-24T18:48:15.101Z,87.60
2022-10-24T18:50:48.150Z,87.77
2022-10-24T18:53:21.520Z,87.64
2022-10-24T18:55:50.431Z,86.70
2022-10-24T18:58:19.580Z,86.39
2022-10-24T19:00:58.708Z,86.04
2022-10-24T19:03:30.879Z,88.27
2022-10-24T19:05:59.383Z,90.46
2022-10-24T19:08:27.706Z,91.72
2022-10-24T19:10:57.937Z,92.52
2022-10-24T19:13:25.772Z,92.84
2022-10-24T19:15:54.907Z,90.91
2022-10-24T19:18:25.024Z,90.54
2022-10-24T19:20:58.863Z,87.60
2022-10-24T19:23:26.614Z,87.74
2022-10-24T19:25:55.528Z,88.96
2022-10-24T19:28:23.108Z,90.43
2022-10-24T19:30:53.921Z,89.60
2022-10-24T19:33:27.781Z,91.84
2022-10-24T19:35:55.377Z,89.34
2022-10-24T19:38:25.136Z,88.38
2022-10-24T19:40:54.013Z,88.39
2022-10-24T19:43:23.105Z,90.06
2022-10-24T19:46:07.255Z,90.49
2022-10-24T19:48:42.763Z,90.00
2022-10-24T19:51:12.230Z,90.00
2022-10-24T19:53:40.365Z,90.40
2022-10-24T19:56:08.523Z,91.03
2022-10-24T19:58:36.338Z,91.71
2022-10-24T20:01:09.760Z,91.86
2022-10-24T20:03:37.945Z,92.23
2022-10-24T20:06:08.021Z,91.57
2022-10-24T20:08:37.456Z,92.92
2022-10-24T20:11:07.068Z,92.53
2022-10-24T20:13:34.866Z,93.56
2022-10-24T20:16:04.406Z,93.49
2022-10-24T20:18:32.953Z,93.63
2022-10-24T20:21:00.790Z,92.41
2022-10-24T20:23:29.958Z,93.20
2022-10-24T20:26:08.125Z,92.20
2022-10-24T20:28:37.467Z,92.66
2022-10-24T20:31:05.547Z,92.68
2022-10-24T20:33:33.521Z,93.16
2022-10-24T20:36:01.245Z,92.25
2022-10-24T20:38:34.058Z,90.68
2022-10-24T20:41:02.554Z,89.38
2022-10-24T20:43:30.538Z,88.04
2022-10-24T20:45:59.878Z,89.99
2022-10-24T20:48:30.724Z,87.86
2022-10-24T20:51:05.217Z,88.66
2022-10-24T20:53:37.462Z,90.01
2022-10-24T20:56:08.178Z,89.82
2022-10-24T20:58:37.702Z,89.91
2022-10-24T21:01:09.153Z,88.58
2022-10-24T21:03:39.749Z,87.39
2022-10-24T21:06:08.077Z,85.98
2022-10-24T21:08:38.519Z,86.01
2022-10-24T21:11:06.938Z,86.71
2022-10-24T21:13:34.569Z,87.93
2022-10-24T21:16:04.055Z,86.62
2022-10-24T21:18:35.973Z,85.79
2022-10-24T21:21:07.324Z,87.40
2022-10-24T21:23:34.966Z,87.64
2022-10-24T21:26:07.967Z,87.88
2022-10-24T21:28:35.682Z,89.99
2022-10-24T21:31:06.925Z,89.12
2022-10-24T21:33:34.613Z,88.58
2022-10-24T21:36:05.869Z,89.17
2022-10-24T21:38:36.674Z,88.26
2022-10-24T21:41:04.876Z,88.96
2022-10-24T21:43:34.572Z,88.46
2022-10-24T21:46:02.962Z,90.59
2022-10-24T21:48:31.010Z,91.18
2022-10-24T21:51:02.130Z,92.02
2022-10-24T21:53:31.954Z,91.10
2022-10-24T21:56:02.971Z,90.01
2022-10-24T21:58:30.520Z,88.27
2022-10-24T22:00:59.591Z,88.26
2022-10-24T22:03:27.273Z,87.37
2022-10-24T22:05:57.891Z,87.29
2022-10-24T22:08:25.741Z,86.89
2022-10-24T22:10:57.710Z,87.25
2022-10-24T22:13:27.385Z,87.65
2022-10-24T22:15:54.990Z,88.29
2022-10-24T22:18:24.190Z,87.73
2022-10-24T22:20:54.190Z,88.34
2022-10-24T22:23:25.225Z,88.30
2022-10-24T22:25:53.422Z,89.22
2022-10-24T22:28:21.203Z,88.34
2022-10-24T22:30:49.058Z,88.66
2022-10-24T22:33:17.842Z,88.07
2022-10-24T22:35:50.332Z,90.42
2022-10-24T22:38:18.168Z,89.90
2022-10-24T22:40:46.561Z,87.58
2022-10-24T22:43:17.397Z,86.91
2022-10-24T22:45:45.492Z,90.17
2022-10-24T22:48:16.786Z,88.73
2022-10-24T22:50:55.966Z,87.64
2022-10-24T22:53:24.297Z,88.66
2022-10-24T22:55:55.865Z,89.15
2022-10-24T22:58:25.927Z,89.77
2022-10-24T23:00:58.206Z,88.40
2022-10-24T23:03:27.225Z,89.86
2022-10-24T23:06:00.172Z,89.99
2022-10-24T23:08:30.358Z,89.97
2022-10-24T23:10:58.173Z,91.15
2022-10-24T23:13:28.095Z,91.02
2022-10-24T23:15:56.414Z,89.65
2022-10-24T23:18:26.856Z,88.99
2022-10-24T23:20:55.340Z,88.68
2022-10-24T23:23:29.216Z,87.89
2022-10-24T23:25:58.094Z,87.32
2022-10-24T23:28:29.131Z,87.60
2022-10-24T23:30:58.911Z,87.05
2022-10-24T23:33:29.316Z,87.88
2022-10-24T23:35:58.606Z,86.76
2022-10-24T23:38:31.092Z,88.41
2022-10-24T23:40:59.446Z,87.75
2022-10-24T23:43:27.590Z,87.98
2022-10-24T23:45:57.437Z,86.86
2022-10-24T23:48:27.363Z,85.24
2022-10-24T23:50:55.956Z,88.02
2022-10-24T23:53:29.457Z,88.96
2022-10-24T23:58:26.110Z,88.77
